sensor_id;sensor_type;location;lat;lon;timestamp;P1;durP1;ratioP1;P2;durP2;ratioP2
8710;SDS011;4392;47.400;8.062;2024-03-17T00:02:08;35.90;;;33.30;;
8710;SDS011;4392;47.400;8.062;2024-03-17T00:04:34;35.27;;;33.10;;
8710;SDS011;4392;47.400;8.062;2024-03-17T00:07:00;36.20;;;33.73;;
8710;SDS011;4392;47.400;8.062;2024-03-17T00:09:25;41.10;;;37.93;;
8710;SDS011;4392;47.400;8.062;2024-03-17T00:11:54;39.83;;;36.83;;
8710;SDS011;4392;47.400;8.062;2024-03-17T00:14:22;34.67;;;32.43;;
8710;SDS011;4392;47.400;8.062;2024-03-17T00:16:52;34.23;;;32.10;;
8710;SDS011;4392;47.400;8.062;2024-03-17T00:19:17;33.33;;;31.23;;
8710;SDS011;4392;47.400;8.062;2024-03-17T00:21:44;32.07;;;30.37;;
8710;SDS011;4392;47.400;8.062;2024-03-17T00:24:09;32.80;;;31.00;;
8710;SDS011;4392;47.400;8.062;2024-03-17T00:26:35;33.10;;;31.27;;
8710;SDS011;4392;47.400;8.062;2024-03-17T00:29:01;34.13;;;31.83;;
8710;SDS011;4392;47.400;8.062;2024-03-17T00:31:28;33.20;;;30.87;;
8710;SDS011;4392;47.400;8.062;2024-03-17T00:33:54;32.20;;;30.40;;
8710;SDS011;4392;47.400;8.062;2024-03-17T00:36:19;32.53;;;30.73;;
8710;SDS011;4392;47.400;8.062;2024-03-17T00:38:45;33.50;;;31.50;;
8710;SDS011;4392;47.400;8.062;2024-03-17T00:41:11;33.17;;;31.27;;
8710;SDS011;4392;47.400;8.062;2024-03-17T00:43:36;47.90;;;43.57;;
8710;SDS011;4392;47.400;8.062;2024-03-17T00:46:03;75.03;;;62.87;;
8710;SDS011;4392;47.400;8.062;2024-03-17T00:48:29;44.17;;;40.53;;
8710;SDS011;4392;47.400;8.062;2024-03-17T00:50:55;38.93;;;36.03;;
8710;SDS011;4392;47.400;8.062;2024-03-17T00:53:27;36.70;;;34.27;;
8710;SDS011;4392;47.400;8.062;2024-03-17T00:55:54;39.40;;;36.20;;
8710;SDS011;4392;47.400;8.062;2024-03-17T00:58:23;35.50;;;33.07;;
8710;SDS011;4392;47.400;8.062;2024-03-17T01:00:49;32.60;;;30.70;;
8710;SDS011;4392;47.400;8.062;2024-03-17T01:03:15;30.90;;;29.40;;
8710;SDS011;4392;47.400;8.062;2024-03-17T01:05:42;30.60;;;29.10;;
8710;SDS011;4392;47.400;8.062;2024-03-17T01:08:10;32.67;;;30.67;;
8710;SDS011;4392;47.400;8.062;2024-03-17T01:10:39;30.77;;;29.17;;
8710;SDS011;4392;47.400;8.062;2024-03-17T01:13:06;30.67;;;28.87;;
8710;SDS011;4392;47.400;8.062;2024-03-17T01:15:33;30.97;;;29.27;;
8710;SDS011;4392;47.400;8.062;2024-03-17T01:17:59;29.87;;;28.37;;
8710;SDS011;4392;47.400;8.062;2024-03-17T01:20:25;30.40;;;28.90;;
8710;SDS011;4392;47.400;8.062;2024-03-17T01:22:51;30.57;;;28.87;;
8710;SDS011;4392;47.400;8.062;2024-03-17T01:25:17;30.23;;;28.70;;
8710;SDS011;4392;47.400;8.062;2024-03-17T01:27:43;30.33;;;28.73;;
8710;SDS011;4392;47.400;8.062;2024-03-17T01:30:09;31.83;;;30.13;;
8710;SDS011;4392;47.400;8.062;2024-03-17T01:32:37;29.23;;;27.87;;
8710;SDS011;4392;47.400;8.062;2024-03-17T01:35:03;42.03;;;38.53;;
8710;SDS011;4392;47.400;8.062;2024-03-17T01:37:30;48.80;;;44.30;;
8710;SDS011;4392;47.400;8.062;2024-03-17T01:39:57;103.97;;;77.73;;
8710;SDS011;4392;47.400;8.062;2024-03-17T01:42:25;132.83;;;102.53;;
8710;SDS011;4392;47.400;8.062;2024-03-17T01:44:51;53.40;;;48.40;;
8710;SDS011;4392;47.400;8.062;2024-03-17T01:47:17;40.07;;;37.17;;
8710;SDS011;4392;47.400;8.062;2024-03-17T01:49:47;91.30;;;71.60;;
8710;SDS011;4392;47.400;8.062;2024-03-17T01:52:16;50.73;;;46.10;;
8710;SDS011;4392;47.400;8.062;2024-03-17T01:54:43;42.43;;;38.97;;
8710;SDS011;4392;47.400;8.062;2024-03-17T01:57:11;40.13;;;37.13;;
8710;SDS011;4392;47.400;8.062;2024-03-17T01:59:37;35.43;;;32.83;;
8710;SDS011;4392;47.400;8.062;2024-03-17T02:02:04;34.13;;;31.60;;
8710;SDS011;4392;47.400;8.062;2024-03-17T02:04:30;32.27;;;30.37;;
8710;SDS011;4392;47.400;8.062;2024-03-17T02:06:56;31.97;;;30.07;;
8710;SDS011;4392;47.400;8.062;2024-03-17T02:09:22;31.83;;;30.03;;
8710;SDS011;4392;47.400;8.062;2024-03-17T02:11:50;30.97;;;29.30;;
8710;SDS011;4392;47.400;8.062;2024-03-17T02:14:16;30.90;;;29.30;;
8710;SDS011;4392;47.400;8.062;2024-03-17T02:16:43;30.40;;;28.80;;
8710;SDS011;4392;47.400;8.062;2024-03-17T02:19:09;30.80;;;28.93;;
8710;SDS011;4392;47.400;8.062;2024-03-17T02:21:35;31.23;;;29.50;;
8710;SDS011;4392;47.400;8.062;2024-03-17T02:24:02;30.90;;;29.30;;
8710;SDS011;4392;47.400;8.062;2024-03-17T02:26:28;32.53;;;30.70;;
8710;SDS011;4392;47.400;8.062;2024-03-17T02:28:53;33.20;;;31.17;;
8710;SDS011;4392;47.400;8.062;2024-03-17T02:31:19;31.93;;;30.07;;
8710;SDS011;4392;47.400;8.062;2024-03-17T02:33:47;31.77;;;29.97;;
8710;SDS011;4392;47.400;8.062;2024-03-17T02:36:13;31.63;;;29.23;;
8710;SDS011;4392;47.400;8.062;2024-03-17T02:38:39;30.70;;;29.10;;
8710;SDS011;4392;47.400;8.062;2024-03-17T02:41:23;30.00;;;28.47;;
8710;SDS011;4392;47.400;8.062;2024-03-17T02:43:49;31.13;;;29.37;;
8710;SDS011;4392;47.400;8.062;2024-03-17T02:46:16;29.67;;;28.27;;
8710;SDS011;4392;47.400;8.062;2024-03-17T02:48:43;30.17;;;28.60;;
8710;SDS011;4392;47.400;8.062;2024-03-17T02:51:12;30.83;;;29.27;;
8710;SDS011;4392;47.400;8.062;2024-03-17T02:53:40;30.50;;;28.80;;
8710;SDS011;4392;47.400;8.062;2024-03-17T02:56:06;32.07;;;30.00;;
8710;SDS011;4392;47.400;8.062;2024-03-17T02:58:35;31.70;;;29.80;;
8710;SDS011;4392;47.400;8.062;2024-03-17T03:01:02;31.53;;;29.73;;
8710;SDS011;4392;47.400;8.062;2024-03-17T03:03:29;31.07;;;29.33;;
8710;SDS011;4392;47.400;8.062;2024-03-17T03:05:55;31.73;;;29.93;;
8710;SDS011;4392;47.400;8.062;2024-03-17T03:08:22;30.93;;;29.23;;
8710;SDS011;4392;47.400;8.062;2024-03-17T03:10:48;30.83;;;29.23;;
8710;SDS011;4392;47.400;8.062;2024-03-17T03:13:14;31.53;;;29.83;;
8710;SDS011;4392;47.400;8.062;2024-03-17T03:15:39;31.03;;;29.43;;
8710;SDS011;4392;47.400;8.062;2024-03-17T03:18:05;31.30;;;29.70;;
8710;SDS011;4392;47.400;8.062;2024-03-17T03:20:31;31.27;;;29.47;;
8710;SDS011;4392;47.400;8.062;2024-03-17T03:22:56;30.20;;;28.53;;
8710;SDS011;4392;47.400;8.062;2024-03-17T03:25:22;30.13;;;28.43;;
8710;SDS011;4392;47.400;8.062;2024-03-17T03:27:48;30.70;;;29.13;;
8710;SDS011;4392;47.400;8.062;2024-03-17T03:30:13;30.87;;;29.17;;
8710;SDS011;4392;47.400;8.062;2024-03-17T03:32:40;30.17;;;28.67;;
8710;SDS011;4392;47.400;8.062;2024-03-17T03:35:07;31.73;;;30.03;;
8710;SDS011;4392;47.400;8.062;2024-03-17T03:37:33;78.40;;;65.03;;
8710;SDS011;4392;47.400;8.062;2024-03-17T03:39:59;56.33;;;50.57;;
8710;SDS011;4392;47.400;8.062;2024-03-17T03:42:24;50.00;;;45.37;;
8710;SDS011;4392;47.400;8.062;2024-03-17T03:44:50;40.87;;;37.37;;
8710;SDS011;4392;47.400;8.062;2024-03-17T03:47:18;35.60;;;32.97;;
8710;SDS011;4392;47.400;8.062;2024-03-17T03:49:43;34.73;;;32.53;;
8710;SDS011;4392;47.400;8.062;2024-03-17T03:52:10;30.67;;;29.07;;
8710;SDS011;4392;47.400;8.062;2024-03-17T03:54:36;31.03;;;29.47;;
8710;SDS011;4392;47.400;8.062;2024-03-17T03:57:02;30.70;;;29.10;;
8710;SDS011;4392;47.400;8.062;2024-03-17T03:59:27;30.03;;;28.43;;
8710;SDS011;4392;47.400;8.062;2024-03-17T04:01:54;30.47;;;28.77;;
8710;SDS011;4392;47.400;8.062;2024-03-17T04:04:19;30.37;;;28.87;;
8710;SDS011;4392;47.400;8.062;2024-03-17T04:06:45;29.50;;;28.10;;
8710;SDS011;4392;47.400;8.062;2024-03-17T04:09:12;29.93;;;28.53;;
8710;SDS011;4392;47.400;8.062;2024-03-17T04:11:37;29.67;;;28.27;;
8710;SDS011;4392;47.400;8.062;2024-03-17T04:14:03;30.87;;;29.10;;
8710;SDS011;4392;47.400;8.062;2024-03-17T04:16:29;30.97;;;29.23;;
8710;SDS011;4392;47.400;8.062;2024-03-17T04:18:56;30.53;;;29.03;;
8710;SDS011;4392;47.400;8.062;2024-03-17T04:21:22;30.57;;;28.80;;
8710;SDS011;4392;47.400;8.062;2024-03-17T04:23:48;30.30;;;28.73;;
8710;SDS011;4392;47.400;8.062;2024-03-17T04:26:13;30.10;;;28.40;;
8710;SDS011;4392;47.400;8.062;2024-03-17T04:28:39;30.23;;;28.50;;
8710;SDS011;4392;47.400;8.062;2024-03-17T04:31:05;30.50;;;28.80;;
8710;SDS011;4392;47.400;8.062;2024-03-17T04:33:32;29.57;;;28.03;;
8710;SDS011;4392;47.400;8.062;2024-03-17T04:35:58;30.07;;;28.20;;
8710;SDS011;4392;47.400;8.062;2024-03-17T04:38:24;29.80;;;28.30;;
8710;SDS011;4392;47.400;8.062;2024-03-17T04:40:50;30.00;;;28.27;;
8710;SDS011;4392;47.400;8.062;2024-03-17T04:43:19;29.37;;;27.83;;
8710;SDS011;4392;47.400;8.062;2024-03-17T04:45:45;30.10;;;28.17;;
8710;SDS011;4392;47.400;8.062;2024-03-17T04:48:12;29.93;;;28.43;;
8710;SDS011;4392;47.400;8.062;2024-03-17T04:50:38;30.07;;;28.47;;
8710;SDS011;4392;47.400;8.062;2024-03-17T04:53:06;29.10;;;27.70;;
8710;SDS011;4392;47.400;8.062;2024-03-17T04:55:31;30.37;;;28.83;;
8710;SDS011;4392;47.400;8.062;2024-03-17T04:57:57;30.57;;;28.87;;
8710;SDS011;4392;47.400;8.062;2024-03-17T05:00:23;30.00;;;28.50;;
8710;SDS011;4392;47.400;8.062;2024-03-17T05:02:49;29.67;;;28.27;;
8710;SDS011;4392;47.400;8.062;2024-03-17T05:05:15;29.67;;;28.07;;
8710;SDS011;4392;47.400;8.062;2024-03-17T05:07:40;30.63;;;28.80;;
8710;SDS011;4392;47.400;8.062;2024-03-17T05:10:06;30.20;;;28.57;;
8710;SDS011;4392;47.400;8.062;2024-03-17T05:12:32;30.70;;;29.00;;
8710;SDS011;4392;47.400;8.062;2024-03-17T05:14:58;31.17;;;29.50;;
8710;SDS011;4392;47.400;8.062;2024-03-17T05:17:23;30.30;;;28.53;;
8710;SDS011;4392;47.400;8.062;2024-03-17T05:19:49;30.10;;;28.50;;
8710;SDS011;4392;47.400;8.062;2024-03-17T05:22:15;29.73;;;28.23;;
8710;SDS011;4392;47.400;8.062;2024-03-17T05:24:40;30.27;;;28.63;;
8710;SDS011;4392;47.400;8.062;2024-03-17T05:27:06;30.13;;;28.60;;
8710;SDS011;4392;47.400;8.062;2024-03-17T05:29:31;31.30;;;29.47;;
8710;SDS011;4392;47.400;8.062;2024-03-17T05:31:58;30.30;;;28.80;;
8710;SDS011;4392;47.400;8.062;2024-03-17T05:34:23;29.87;;;28.20;;
8710;SDS011;4392;47.400;8.062;2024-03-17T05:36:52;30.67;;;28.60;;
8710;SDS011;4392;47.400;8.062;2024-03-17T05:39:18;30.07;;;28.57;;
8710;SDS011;4392;47.400;8.062;2024-03-17T05:41:45;31.10;;;29.30;;
8710;SDS011;4392;47.400;8.062;2024-03-17T05:44:13;29.60;;;28.00;;
8710;SDS011;4392;47.400;8.062;2024-03-17T05:46:40;29.77;;;28.27;;
8710;SDS011;4392;47.400;8.062;2024-03-17T05:49:05;30.03;;;28.50;;
8710;SDS011;4392;47.400;8.062;2024-03-17T05:51:31;29.73;;;28.17;;
8710;SDS011;4392;47.400;8.062;2024-03-17T05:53:57;29.70;;;28.20;;
8710;SDS011;4392;47.400;8.062;2024-03-17T05:56:23;29.97;;;28.27;;
8710;SDS011;4392;47.400;8.062;2024-03-17T05:58:49;29.77;;;28.13;;
8710;SDS011;4392;47.400;8.062;2024-03-17T06:01:17;30.03;;;28.27;;
8710;SDS011;4392;47.400;8.062;2024-03-17T06:03:44;30.93;;;29.17;;
8710;SDS011;4392;47.400;8.062;2024-03-17T06:06:09;33.23;;;31.03;;
8710;SDS011;4392;47.400;8.062;2024-03-17T06:08:36;36.63;;;33.67;;
8710;SDS011;4392;47.400;8.062;2024-03-17T06:11:02;33.27;;;31.13;;
8710;SDS011;4392;47.400;8.062;2024-03-17T06:13:30;32.00;;;30.17;;
8710;SDS011;4392;47.400;8.062;2024-03-17T06:15:56;33.17;;;31.17;;
8710;SDS011;4392;47.400;8.062;2024-03-17T06:18:31;30.50;;;28.90;;
8710;SDS011;4392;47.400;8.062;2024-03-17T06:20:57;30.20;;;28.67;;
8710;SDS011;4392;47.400;8.062;2024-03-17T06:23:28;31.97;;;30.03;;
8710;SDS011;4392;47.400;8.062;2024-03-17T06:25:54;32.87;;;30.70;;
8710;SDS011;4392;47.400;8.062;2024-03-17T06:28:22;32.20;;;30.37;;
8710;SDS011;4392;47.400;8.062;2024-03-17T06:30:55;31.07;;;29.10;;
8710;SDS011;4392;47.400;8.062;2024-03-17T06:33:24;29.70;;;28.20;;
8710;SDS011;4392;47.400;8.062;2024-03-17T06:35:50;31.47;;;29.67;;
8710;SDS011;4392;47.400;8.062;2024-03-17T06:38:16;30.77;;;29.13;;
8710;SDS011;4392;47.400;8.062;2024-03-17T06:40:47;30.30;;;28.77;;
8710;SDS011;4392;47.400;8.062;2024-03-17T06:43:14;29.90;;;28.43;;
8710;SDS011;4392;47.400;8.062;2024-03-17T06:45:40;29.40;;;27.87;;
8710;SDS011;4392;47.400;8.062;2024-03-17T06:48:05;30.40;;;28.70;;
8710;SDS011;4392;47.400;8.062;2024-03-17T06:50:32;30.27;;;28.53;;
8710;SDS011;4392;47.400;8.062;2024-03-17T06:52:57;29.67;;;28.13;;
8710;SDS011;4392;47.400;8.062;2024-03-17T06:55:23;29.40;;;28.00;;
8710;SDS011;4392;47.400;8.062;2024-03-17T06:57:49;30.10;;;28.40;;
8710;SDS011;4392;47.400;8.062;2024-03-17T07:00:16;29.43;;;27.87;;
8710;SDS011;4392;47.400;8.062;2024-03-17T07:02:45;30.10;;;28.50;;
8710;SDS011;4392;47.400;8.062;2024-03-17T07:05:19;29.83;;;28.07;;
8710;SDS011;4392;47.400;8.062;2024-03-17T07:07:47;28.83;;;27.43;;
8710;SDS011;4392;47.400;8.062;2024-03-17T07:10:13;30.03;;;28.37;;
8710;SDS011;4392;47.400;8.062;2024-03-17T07:12:40;29.23;;;27.77;;
8710;SDS011;4392;47.400;8.062;2024-03-17T07:15:06;29.07;;;27.47;;
8710;SDS011;4392;47.400;8.062;2024-03-17T07:17:33;31.27;;;29.53;;
8710;SDS011;4392;47.400;8.062;2024-03-17T07:19:59;29.67;;;28.17;;
8710;SDS011;4392;47.400;8.062;2024-03-17T07:22:25;29.80;;;28.00;;
8710;SDS011;4392;47.400;8.062;2024-03-17T07:24:51;30.60;;;28.93;;
8710;SDS011;4392;47.400;8.062;2024-03-17T07:27:21;31.03;;;29.23;;
8710;SDS011;4392;47.400;8.062;2024-03-17T07:29:47;30.27;;;28.77;;
8710;SDS011;4392;47.400;8.062;2024-03-17T07:32:13;29.27;;;27.73;;
8710;SDS011;4392;47.400;8.062;2024-03-17T07:34:38;29.70;;;28.20;;
8710;SDS011;4392;47.400;8.062;2024-03-17T07:37:04;29.40;;;27.83;;
8710;SDS011;4392;47.400;8.062;2024-03-17T07:39:30;29.57;;;28.07;;
8710;SDS011;4392;47.400;8.062;2024-03-17T07:41:59;29.20;;;27.73;;
8710;SDS011;4392;47.400;8.062;2024-03-17T07:44:26;30.27;;;28.47;;
8710;SDS011;4392;47.400;8.062;2024-03-17T07:46:59;28.63;;;27.30;;
8710;SDS011;4392;47.400;8.062;2024-03-17T07:49:25;29.00;;;27.60;;
8710;SDS011;4392;47.400;8.062;2024-03-17T07:51:51;28.80;;;27.40;;
8710;SDS011;4392;47.400;8.062;2024-03-17T07:54:17;30.27;;;28.60;;
8710;SDS011;4392;47.400;8.062;2024-03-17T07:56:44;29.03;;;27.73;;
8710;SDS011;4392;47.400;8.062;2024-03-17T07:59:11;28.57;;;27.20;;
8710;SDS011;4392;47.400;8.062;2024-03-17T08:01:40;28.73;;;27.43;;
8710;SDS011;4392;47.400;8.062;2024-03-17T08:04:06;29.23;;;27.83;;
8710;SDS011;4392;47.400;8.062;2024-03-17T08:06:31;28.97;;;27.67;;
8710;SDS011;4392;47.400;8.062;2024-03-17T08:08:57;30.20;;;28.27;;
8710;SDS011;4392;47.400;8.062;2024-03-17T08:11:23;29.27;;;27.63;;
8710;SDS011;4392;47.400;8.062;2024-03-17T08:13:49;29.27;;;27.70;;
8710;SDS011;4392;47.400;8.062;2024-03-17T08:16:19;28.63;;;27.23;;
8710;SDS011;4392;47.400;8.062;2024-03-17T08:18:45;29.40;;;27.97;;
8710;SDS011;4392;47.400;8.062;2024-03-17T08:21:11;29.90;;;28.30;;
8710;SDS011;4392;47.400;8.062;2024-03-17T08:23:36;29.17;;;27.87;;
8710;SDS011;4392;47.400;8.062;2024-03-17T08:26:06;29.70;;;27.83;;
8710;SDS011;4392;47.400;8.062;2024-03-17T08:28:32;29.57;;;28.17;;
8710;SDS011;4392;47.400;8.062;2024-03-17T08:30:58;29.50;;;28.07;;
8710;SDS011;4392;47.400;8.062;2024-03-17T08:33:26;29.63;;;28.13;;
8710;SDS011;4392;47.400;8.062;2024-03-17T08:35:53;29.13;;;27.70;;
8710;SDS011;4392;47.400;8.062;2024-03-17T08:38:30;29.87;;;28.43;;
8710;SDS011;4392;47.400;8.062;2024-03-17T08:40:57;29.40;;;28.10;;
8710;SDS011;4392;47.400;8.062;2024-03-17T08:43:29;29.83;;;28.47;;
8710;SDS011;4392;47.400;8.062;2024-03-17T08:45:59;29.67;;;28.27;;
8710;SDS011;4392;47.400;8.062;2024-03-17T08:48:29;29.57;;;28.17;;
8710;SDS011;4392;47.400;8.062;2024-03-17T08:50:58;29.63;;;28.13;;
8710;SDS011;4392;47.400;8.062;2024-03-17T08:53:25;29.23;;;27.93;;
8710;SDS011;4392;47.400;8.062;2024-03-17T08:55:51;29.80;;;28.40;;
8710;SDS011;4392;47.400;8.062;2024-03-17T08:58:18;29.40;;;27.90;;
8710;SDS011;4392;47.400;8.062;2024-03-17T09:00:44;29.43;;;27.90;;
8710;SDS011;4392;47.400;8.062;2024-03-17T09:03:10;29.77;;;28.27;;
8710;SDS011;4392;47.400;8.062;2024-03-17T09:05:41;30.07;;;28.57;;
8710;SDS011;4392;47.400;8.062;2024-03-17T09:08:15;29.00;;;27.60;;
8710;SDS011;4392;47.400;8.062;2024-03-17T09:10:47;29.43;;;28.03;;
8710;SDS011;4392;47.400;8.062;2024-03-17T09:13:14;29.13;;;27.80;;
8710;SDS011;4392;47.400;8.062;2024-03-17T09:15:49;30.87;;;29.20;;
8710;SDS011;4392;47.400;8.062;2024-03-17T09:18:16;29.77;;;28.07;;
8710;SDS011;4392;47.400;8.062;2024-03-17T09:20:42;29.57;;;28.17;;
8710;SDS011;4392;47.400;8.062;2024-03-17T09:23:09;29.43;;;28.03;;
8710;SDS011;4392;47.400;8.062;2024-03-17T09:25:35;30.37;;;28.77;;
8710;SDS011;4392;47.400;8.062;2024-03-17T09:28:02;30.47;;;28.67;;
8710;SDS011;4392;47.400;8.062;2024-03-17T09:33:05;29.97;;;28.47;;
8710;SDS011;4392;47.400;8.062;2024-03-17T09:35:31;29.70;;;28.30;;
8710;SDS011;4392;47.400;8.062;2024-03-17T09:37:57;29.50;;;28.10;;
8710;SDS011;4392;47.400;8.062;2024-03-17T09:40:23;29.37;;;27.77;;
8710;SDS011;4392;47.400;8.062;2024-03-17T09:42:50;29.40;;;28.10;;
8710;SDS011;4392;47.400;8.062;2024-03-17T09:45:19;29.27;;;27.97;;
8710;SDS011;4392;47.400;8.062;2024-03-17T09:47:47;30.50;;;28.87;;
8710;SDS011;4392;47.400;8.062;2024-03-17T09:50:13;30.20;;;28.70;;
8710;SDS011;4392;47.400;8.062;2024-03-17T09:52:44;30.03;;;28.43;;
8710;SDS011;4392;47.400;8.062;2024-03-17T09:55:15;29.23;;;27.90;;
8710;SDS011;4392;47.400;8.062;2024-03-17T09:57:42;29.63;;;28.13;;
8710;SDS011;4392;47.400;8.062;2024-03-17T10:00:09;30.00;;;28.50;;
8710;SDS011;4392;47.400;8.062;2024-03-17T10:02:46;29.53;;;28.10;;
8710;SDS011;4392;47.400;8.062;2024-03-17T10:05:23;29.67;;;28.10;;
8710;SDS011;4392;47.400;8.062;2024-03-17T10:07:52;29.33;;;27.77;;
8710;SDS011;4392;47.400;8.062;2024-03-17T10:10:18;28.97;;;27.67;;
8710;SDS011;4392;47.400;8.062;2024-03-17T10:12:49;29.03;;;27.77;;
8710;SDS011;4392;47.400;8.062;2024-03-17T10:15:18;28.97;;;27.67;;
8710;SDS011;4392;47.400;8.062;2024-03-17T10:17:45;29.17;;;27.53;;
8710;SDS011;4392;47.400;8.062;2024-03-17T10:20:15;28.67;;;27.37;;
8710;SDS011;4392;47.400;8.062;2024-03-17T10:23:03;28.77;;;27.33;;
8710;SDS011;4392;47.400;8.062;2024-03-17T10:25:32;29.10;;;27.70;;
8710;SDS011;4392;47.400;8.062;2024-03-17T10:28:00;29.00;;;27.50;;
8710;SDS011;4392;47.400;8.062;2024-03-17T10:30:26;29.00;;;27.60;;
8710;SDS011;4392;47.400;8.062;2024-03-17T10:32:57;29.73;;;28.23;;
8710;SDS011;4392;47.400;8.062;2024-03-17T10:35:34;69.60;;;58.23;;
8710;SDS011;4392;47.400;8.062;2024-03-17T10:38:04;58.10;;;52.03;;
8710;SDS011;4392;47.400;8.062;2024-03-17T10:40:30;36.73;;;34.07;;
8710;SDS011;4392;47.400;8.062;2024-03-17T10:42:59;31.57;;;29.97;;
8710;SDS011;4392;47.400;8.062;2024-03-17T10:45:26;31.07;;;29.27;;
8710;SDS011;4392;47.400;8.062;2024-03-17T10:47:55;29.70;;;28.33;;
8710;SDS011;4392;47.400;8.062;2024-03-17T10:50:25;29.83;;;28.43;;
8710;SDS011;4392;47.400;8.062;2024-03-17T10:53:01;29.90;;;28.50;;
8710;SDS011;4392;47.400;8.062;2024-03-17T10:58:28;29.83;;;28.43;;
8710;SDS011;4392;47.400;8.062;2024-03-17T11:01:00;29.73;;;28.33;;
8710;SDS011;4392;47.400;8.062;2024-03-17T11:03:30;29.37;;;28.07;;
8710;SDS011;4392;47.400;8.062;2024-03-17T11:05:56;108.47;;;79.43;;
8710;SDS011;4392;47.400;8.062;2024-03-17T11:08:23;108.33;;;81.97;;
8710;SDS011;4392;47.400;8.062;2024-03-17T11:10:51;54.60;;;49.27;;
8710;SDS011;4392;47.400;8.062;2024-03-17T11:13:24;44.13;;;40.57;;
8710;SDS011;4392;47.400;8.062;2024-03-17T11:15:51;36.23;;;34.03;;
8710;SDS011;4392;47.400;8.062;2024-03-17T11:21:29;40.33;;;37.07;;
8710;SDS011;4392;47.400;8.062;2024-03-17T11:23:55;44.13;;;40.17;;
8710;SDS011;4392;47.400;8.062;2024-03-17T11:26:27;38.30;;;35.40;;
8710;SDS011;4392;47.400;8.062;2024-03-17T11:28:57;35.80;;;33.20;;
8710;SDS011;4392;47.400;8.062;2024-03-17T11:31:37;33.90;;;31.97;;
8710;SDS011;4392;47.400;8.062;2024-03-17T11:34:06;33.63;;;31.50;;
8710;SDS011;4392;47.400;8.062;2024-03-17T11:36:51;32.80;;;31.00;;
8710;SDS011;4392;47.400;8.062;2024-03-17T11:39:18;33.77;;;31.37;;
8710;SDS011;4392;47.400;8.062;2024-03-17T11:41:51;32.50;;;30.80;;
8710;SDS011;4392;47.400;8.062;2024-03-17T11:49:18;109.10;;;81.73;;
8710;SDS011;4392;47.400;8.062;2024-03-17T11:51:49;93.10;;;76.63;;
8710;SDS011;4392;47.400;8.062;2024-03-17T11:54:16;51.17;;;46.57;;
8710;SDS011;4392;47.400;8.062;2024-03-17T11:56:55;51.93;;;47.00;;
8710;SDS011;4392;47.400;8.062;2024-03-17T11:59:25;52.07;;;47.37;;
8710;SDS011;4392;47.400;8.062;2024-03-17T12:01:51;52.10;;;47.37;;
8710;SDS011;4392;47.400;8.062;2024-03-17T12:04:18;48.57;;;44.37;;
8710;SDS011;4392;47.400;8.062;2024-03-17T12:06:58;39.00;;;36.27;;
8710;SDS011;4392;47.400;8.062;2024-03-17T12:09:28;33.70;;;31.80;;
8710;SDS011;4392;47.400;8.062;2024-03-17T12:14:27;32.13;;;30.53;;
8710;SDS011;4392;47.400;8.062;2024-03-17T12:16:54;32.17;;;30.57;;
8710;SDS011;4392;47.400;8.062;2024-03-17T12:19:26;32.10;;;30.40;;
8710;SDS011;4392;47.400;8.062;2024-03-17T12:21:53;32.13;;;30.33;;
8710;SDS011;4392;47.400;8.062;2024-03-17T12:24:21;32.80;;;30.80;;
8710;SDS011;4392;47.400;8.062;2024-03-17T12:26:48;33.93;;;31.70;;
8710;SDS011;4392;47.400;8.062;2024-03-17T12:29:27;33.13;;;31.23;;
8710;SDS011;4392;47.400;8.062;2024-03-17T12:32:26;31.47;;;29.87;;
8710;SDS011;4392;47.400;8.062;2024-03-17T12:34:57;32.60;;;30.77;;
8710;SDS011;4392;47.400;8.062;2024-03-17T12:37:24;31.70;;;30.10;;
8710;SDS011;4392;47.400;8.062;2024-03-17T12:39:58;70.17;;;61.47;;
8710;SDS011;4392;47.400;8.062;2024-03-17T12:42:25;47.50;;;43.43;;
8710;SDS011;4392;47.400;8.062;2024-03-17T12:47:30;61.73;;;55.67;;
8710;SDS011;4392;47.400;8.062;2024-03-17T12:49:57;66.37;;;59.70;;
8710;SDS011;4392;47.400;8.062;2024-03-17T12:52:27;54.73;;;49.77;;
8710;SDS011;4392;47.400;8.062;2024-03-17T12:57:45;66.07;;;59.17;;
8710;SDS011;4392;47.400;8.062;2024-03-17T13:00:30;60.83;;;55.13;;
8710;SDS011;4392;47.400;8.062;2024-03-17T13:02:56;59.63;;;54.07;;
8710;SDS011;4392;47.400;8.062;2024-03-17T13:05:22;47.20;;;43.27;;
8710;SDS011;4392;47.400;8.062;2024-03-17T13:07:50;49.27;;;45.23;;
8710;SDS011;4392;47.400;8.062;2024-03-17T13:10:17;46.50;;;42.77;;
8710;SDS011;4392;47.400;8.062;2024-03-17T13:12:46;43.37;;;40.00;;
8710;SDS011;4392;47.400;8.062;2024-03-17T13:15:15;40.07;;;37.37;;
8710;SDS011;4392;47.400;8.062;2024-03-17T13:17:42;37.67;;;35.27;;
8710;SDS011;4392;47.400;8.062;2024-03-17T13:20:12;33.53;;;31.73;;
8710;SDS011;4392;47.400;8.062;2024-03-17T13:22:43;134.37;;;104.80;;
8710;SDS011;4392;47.400;8.062;2024-03-17T13:25:22;53.77;;;48.57;;
8710;SDS011;4392;47.400;8.062;2024-03-17T13:27:51;64.57;;;58.07;;
8710;SDS011;4392;47.400;8.062;2024-03-17T13:30:19;40.67;;;38.03;;
8710;SDS011;4392;47.400;8.062;2024-03-17T13:32:49;35.50;;;33.37;;
8710;SDS011;4392;47.400;8.062;2024-03-17T13:35:21;43.50;;;39.47;;
8710;SDS011;4392;47.400;8.062;2024-03-17T13:37:49;39.93;;;37.10;;
8710;SDS011;4392;47.400;8.062;2024-03-17T13:40:15;36.77;;;34.40;;
8710;SDS011;4392;47.400;8.062;2024-03-17T13:42:44;36.83;;;34.30;;
8710;SDS011;4392;47.400;8.062;2024-03-17T13:45:16;45.33;;;41.50;;
8710;SDS011;4392;47.400;8.062;2024-03-17T13:47:53;35.53;;;33.23;;
8710;SDS011;4392;47.400;8.062;2024-03-17T13:50:25;34.33;;;32.43;;
8710;SDS011;4392;47.400;8.062;2024-03-17T13:52:51;69.67;;;62.30;;
8710;SDS011;4392;47.400;8.062;2024-03-17T13:55:18;46.97;;;43.10;;
8710;SDS011;4392;47.400;8.062;2024-03-17T13:57:46;55.70;;;50.47;;
8710;SDS011;4392;47.400;8.062;2024-03-17T14:00:14;52.90;;;47.83;;
8710;SDS011;4392;47.400;8.062;2024-03-17T14:02:44;50.03;;;45.47;;
8710;SDS011;4392;47.400;8.062;2024-03-17T14:05:14;47.10;;;43.10;;
8710;SDS011;4392;47.400;8.062;2024-03-17T14:07:41;46.63;;;42.60;;
8710;SDS011;4392;47.400;8.062;2024-03-17T14:10:08;86.80;;;73.53;;
8710;SDS011;4392;47.400;8.062;2024-03-17T14:12:37;59.00;;;53.33;;
8710;SDS011;4392;47.400;8.062;2024-03-17T14:15:10;37.70;;;35.30;;
8710;SDS011;4392;47.400;8.062;2024-03-17T14:17:40;35.50;;;33.40;;
8710;SDS011;4392;47.400;8.062;2024-03-17T14:20:10;32.00;;;30.40;;
8710;SDS011;4392;47.400;8.062;2024-03-17T14:22:38;34.33;;;32.33;;
8710;SDS011;4392;47.400;8.062;2024-03-17T14:25:06;33.20;;;31.30;;
8710;SDS011;4392;47.400;8.062;2024-03-17T14:27:34;32.30;;;30.60;;
8710;SDS011;4392;47.400;8.062;2024-03-17T14:30:00;31.53;;;29.77;;
8710;SDS011;4392;47.400;8.062;2024-03-17T14:32:26;31.37;;;29.77;;
8710;SDS011;4392;47.400;8.062;2024-03-17T14:34:53;32.03;;;30.33;;
8710;SDS011;4392;47.400;8.062;2024-03-17T14:37:18;31.23;;;29.43;;
8710;SDS011;4392;47.400;8.062;2024-03-17T14:39:44;30.70;;;29.20;;
8710;SDS011;4392;47.400;8.062;2024-03-17T14:42:10;31.17;;;29.70;;
8710;SDS011;4392;47.400;8.062;2024-03-17T14:44:36;31.90;;;30.10;;
8710;SDS011;4392;47.400;8.062;2024-03-17T14:47:01;31.53;;;29.83;;
8710;SDS011;4392;47.400;8.062;2024-03-17T14:49:29;31.13;;;29.73;;
8710;SDS011;4392;47.400;8.062;2024-03-17T14:51:56;30.87;;;29.30;;
8710;SDS011;4392;47.400;8.062;2024-03-17T14:54:22;30.90;;;29.33;;
8710;SDS011;4392;47.400;8.062;2024-03-17T14:56:47;30.23;;;28.83;;
8710;SDS011;4392;47.400;8.062;2024-03-17T14:59:13;30.90;;;29.30;;
8710;SDS011;4392;47.400;8.062;2024-03-17T15:01:42;30.40;;;29.00;;
8710;SDS011;4392;47.400;8.062;2024-03-17T15:04:08;30.50;;;29.20;;
8710;SDS011;4392;47.400;8.062;2024-03-17T15:06:33;30.53;;;29.23;;
8710;SDS011;4392;47.400;8.062;2024-03-17T15:09:01;30.83;;;29.53;;
8710;SDS011;4392;47.400;8.062;2024-03-17T15:11:28;29.77;;;28.40;;
8710;SDS011;4392;47.400;8.062;2024-03-17T15:13:53;30.27;;;28.77;;